sensor_id;sensor_type;location;lat;lon;timestamp;temperature;humidity
10233;DHT22;5161;48.174;11.756;2022-12-26T00:00:38;11.10;96.80
10233;DHT22;5161;48.174;11.756;2022-12-26T00:03:04;11.10;96.60
10233;DHT22;5161;48.174;11.756;2022-12-26T00:05:34;11.10;96.70
10233;DHT22;5161;48.174;11.756;2022-12-26T00:08:00;11.10;96.60
10233;DHT22;5161;48.174;11.756;2022-12-26T00:10:26;11.10;96.50
10233;DHT22;5161;48.174;11.756;2022-12-26T00:12:51;11.10;96.60
10233;DHT22;5161;48.174;11.756;2022-12-26T00:15:17;11.10;96.40
10233;DHT22;5161;48.174;11.756;2022-12-26T00:17:43;11.10;96.10
10233;DHT22;5161;48.174;11.756;2022-12-26T00:20:08;11.10;96.00
10233;DHT22;5161;48.174;11.756;2022-12-26T00:22:34;11.00;95.90
10233;DHT22;5161;48.174;11.756;2022-12-26T00:25:00;11.00;95.90
10233;DHT22;5161;48.174;11.756;2022-12-26T00:27:25;11.10;96.10
10233;DHT22;5161;48.174;11.756;2022-12-26T00:29:51;11.10;96.10
10233;DHT22;5161;48.174;11.756;2022-12-26T00:32:16;11.10;96.00
10233;DHT22;5161;48.174;11.756;2022-12-26T00:34:42;11.20;96.00
10233;DHT22;5161;48.174;11.756;2022-12-26T00:37:07;11.10;95.80
10233;DHT22;5161;48.174;11.756;2022-12-26T00:39:33;11.00;95.90
10233;DHT22;5161;48.174;11.756;2022-12-26T00:41:58;11.00;95.90
10233;DHT22;5161;48.174;11.756;2022-12-26T00:44:24;11.10;96.10
10233;DHT22;5161;48.174;11.756;2022-12-26T00:46:49;11.00;95.70
10233;DHT22;5161;48.174;11.756;2022-12-26T00:49:15;11.10;96.00
10233;DHT22;5161;48.174;11.756;2022-12-26T00:51:41;11.10;96.10
10233;DHT22;5161;48.174;11.756;2022-12-26T00:54:06;11.10;95.70
10233;DHT22;5161;48.174;11.756;2022-12-26T00:56:32;11.00;95.90
10233;DHT22;5161;48.174;11.756;2022-12-26T00:58:57;11.00;95.80
10233;DHT22;5161;48.174;11.756;2022-12-26T01:01:23;11.10;96.00
10233;DHT22;5161;48.174;11.756;2022-12-26T01:03:49;11.10;95.90
10233;DHT22;5161;48.174;11.756;2022-12-26T01:06:16;11.10;95.70
10233;DHT22;5161;48.174;11.756;2022-12-26T01:08:42;11.00;95.60
10233;DHT22;5161;48.174;11.756;2022-12-26T01:11:11;11.00;95.70
10233;DHT22;5161;48.174;11.756;2022-12-26T01:13:37;11.00;95.60
10233;DHT22;5161;48.174;11.756;2022-12-26T01:16:04;10.90;95.60
10233;DHT22;5161;48.174;11.756;2022-12-26T01:18:30;10.90;95.50
10233;DHT22;5161;48.174;11.756;2022-12-26T01:21:01;10.90;95.40
10233;DHT22;5161;48.174;11.756;2022-12-26T01:23:27;10.90;95.50
10233;DHT22;5161;48.174;11.756;2022-12-26T01:25:53;10.90;95.50
10233;DHT22;5161;48.174;11.756;2022-12-26T01:28:18;10.90;95.60
10233;DHT22;5161;48.174;11.756;2022-12-26T01:30:44;10.90;95.40
10233;DHT22;5161;48.174;11.756;2022-12-26T01:33:10;10.90;95.10
10233;DHT22;5161;48.174;11.756;2022-12-26T01:35:35;10.90;95.10
10233;DHT22;5161;48.174;11.756;2022-12-26T01:38:01;10.90;95.00
10233;DHT22;5161;48.174;11.756;2022-12-26T01:40:26;10.90;95.00
10233;DHT22;5161;48.174;11.756;2022-12-26T01:42:52;10.80;95.00
10233;DHT22;5161;48.174;11.756;2022-12-26T01:52:50;10.80;94.90
10233;DHT22;5161;48.174;11.756;2022-12-26T01:55:18;10.80;94.80
10233;DHT22;5161;48.174;11.756;2022-12-26T01:57:49;10.70;95.00
10233;DHT22;5161;48.174;11.756;2022-12-26T02:00:17;10.70;94.70
10233;DHT22;5161;48.174;11.756;2022-12-26T02:02:43;10.70;94.80
10233;DHT22;5161;48.174;11.756;2022-12-26T02:05:29;10.70;94.80
10233;DHT22;5161;48.174;11.756;2022-12-26T02:10:28;10.70;94.80
10233;DHT22;5161;48.174;11.756;2022-12-26T02:12:57;10.70;94.70
10233;DHT22;5161;48.174;11.756;2022-12-26T02:15:22;10.70;94.70
10233;DHT22;5161;48.174;11.756;2022-12-26T02:17:48;10.60;94.70
10233;DHT22;5161;48.174;11.756;2022-12-26T02:20:23;10.60;94.80
10233;DHT22;5161;48.174;11.756;2022-12-26T02:31:38;10.50;94.10
10233;DHT22;5161;48.174;11.756;2022-12-26T02:34:21;10.50;94.40
10233;DHT22;5161;48.174;11.756;2022-12-26T02:37:17;10.50;94.40
10233;DHT22;5161;48.174;11.756;2022-12-26T02:40:07;10.50;94.40
10233;DHT22;5161;48.174;11.756;2022-12-26T02:42:57;10.50;94.30
10233;DHT22;5161;48.174;11.756;2022-12-26T02:52:04;10.40;94.10
10233;DHT22;5161;48.174;11.756;2022-12-26T02:55:09;10.40;94.10
10233;DHT22;5161;48.174;11.756;2022-12-26T02:58:01;10.30;94.10
10233;DHT22;5161;48.174;11.756;2022-12-26T03:00:52;10.30;93.90
10233;DHT22;5161;48.174;11.756;2022-12-26T03:03:39;10.30;94.00
10233;DHT22;5161;48.174;11.756;2022-12-26T03:06:30;10.30;94.10
10233;DHT22;5161;48.174;11.756;2022-12-26T03:09:20;10.30;94.10
10233;DHT22;5161;48.174;11.756;2022-12-26T03:12:38;10.30;94.00
10233;DHT22;5161;48.174;11.756;2022-12-26T03:15:25;10.20;94.10
10233;DHT22;5161;48.174;11.756;2022-12-26T03:17:56;10.30;94.10
10233;DHT22;5161;48.174;11.756;2022-12-26T03:20:29;10.20;93.90
10233;DHT22;5161;48.174;11.756;2022-12-26T03:23:11;10.30;94.00
10233;DHT22;5161;48.174;11.756;2022-12-26T03:25:45;10.20;93.90
10233;DHT22;5161;48.174;11.756;2022-12-26T03:28:32;10.10;93.90
10233;DHT22;5161;48.174;11.756;2022-12-26T03:31:01;10.10;94.00
10233;DHT22;5161;48.174;11.756;2022-12-26T03:33:34;10.10;94.00
10233;DHT22;5161;48.174;11.756;2022-12-26T03:36:34;10.10;94.10
10233;DHT22;5161;48.174;11.756;2022-12-26T03:39:32;10.20;94.10
10233;DHT22;5161;48.174;11.756;2022-12-26T03:45:49;10.10;93.90
10233;DHT22;5161;48.174;11.756;2022-12-26T03:48:43;10.10;94.00
10233;DHT22;5161;48.174;11.756;2022-12-26T03:51:32;10.10;93.80
10233;DHT22;5161;48.174;11.756;2022-12-26T03:54:36;10.20;93.80
10233;DHT22;5161;48.174;11.756;2022-12-26T03:57:38;10.20;93.90
10233;DHT22;5161;48.174;11.756;2022-12-26T04:00:25;10.20;93.80
10233;DHT22;5161;48.174;11.756;2022-12-26T04:03:12;10.10;93.70
10233;DHT22;5161;48.174;11.756;2022-12-26T04:06:01;10.10;93.90
10233;DHT22;5161;48.174;11.756;2022-12-26T04:08:54;10.10;93.70
10233;DHT22;5161;48.174;11.756;2022-12-26T04:11:43;10.10;93.80
10233;DHT22;5161;48.174;11.756;2022-12-26T04:14:41;10.10;93.70
10233;DHT22;5161;48.174;11.756;2022-12-26T04:17:44;10.10;93.70
10233;DHT22;5161;48.174;11.756;2022-12-26T04:20:39;10.10;93.60
10233;DHT22;5161;48.174;11.756;2022-12-26T04:23:20;10.00;93.60
10233;DHT22;5161;48.174;11.756;2022-12-26T04:26:16;10.00;93.50
10233;DHT22;5161;48.174;11.756;2022-12-26T04:29:02;10.00;93.50
10233;DHT22;5161;48.174;11.756;2022-12-26T04:35:00;9.90;94.10
10233;DHT22;5161;48.174;11.756;2022-12-26T04:37:48;9.90;94.00
10233;DHT22;5161;48.174;11.756;2022-12-26T04:40:37;9.90;94.00
10233;DHT22;5161;48.174;11.756;2022-12-26T04:43:22;9.90;94.00
10233;DHT22;5161;48.174;11.756;2022-12-26T04:46:06;10.00;93.50
10233;DHT22;5161;48.174;11.756;2022-12-26T04:48:33;10.00;93.30
10233;DHT22;5161;48.174;11.756;2022-12-26T04:51:25;10.00;93.50
10233;DHT22;5161;48.174;11.756;2022-12-26T04:53:50;10.10;93.50
10233;DHT22;5161;48.174;11.756;2022-12-26T04:56:16;10.10;93.30
10233;DHT22;5161;48.174;11.756;2022-12-26T04:58:43;10.00;93.40
10233;DHT22;5161;48.174;11.756;2022-12-26T05:01:08;10.00;93.40
10233;DHT22;5161;48.174;11.756;2022-12-26T05:03:52;10.00;93.40
10233;DHT22;5161;48.174;11.756;2022-12-26T05:06:36;10.00;93.40
10233;DHT22;5161;48.174;11.756;2022-12-26T05:09:20;10.00;93.40
10233;DHT22;5161;48.174;11.756;2022-12-26T05:12:02;10.10;93.40
10233;DHT22;5161;48.174;11.756;2022-12-26T05:14:29;10.10;93.30
10233;DHT22;5161;48.174;11.756;2022-12-26T05:16:57;10.10;93.30
10233;DHT22;5161;48.174;11.756;2022-12-26T05:19:41;10.10;93.20
10233;DHT22;5161;48.174;11.756;2022-12-26T05:22:28;10.10;93.20
10233;DHT22;5161;48.174;11.756;2022-12-26T05:25:19;10.00;93.20
10233;DHT22;5161;48.174;11.756;2022-12-26T05:28:04;10.00;93.20
10233;DHT22;5161;48.174;11.756;2022-12-26T05:30:48;10.00;93.10
10233;DHT22;5161;48.174;11.756;2022-12-26T05:33:14;10.00;93.20
10233;DHT22;5161;48.174;11.756;2022-12-26T05:35:58;10.00;93.20
10233;DHT22;5161;48.174;11.756;2022-12-26T05:38:28;9.90;93.60
10233;DHT22;5161;48.174;11.756;2022-12-26T05:40:53;9.90;93.80
10233;DHT22;5161;48.174;11.756;2022-12-26T05:43:21;10.00;93.20
10233;DHT22;5161;48.174;11.756;2022-12-26T05:45:47;9.90;93.60
10233;DHT22;5161;48.174;11.756;2022-12-26T05:54:09;10.00;93.30
10233;DHT22;5161;48.174;11.756;2022-12-26T05:56:35;10.00;93.30
10233;DHT22;5161;48.174;11.756;2022-12-26T05:59:00;10.10;93.30
10233;DHT22;5161;48.174;11.756;2022-12-26T06:01:27;10.10;93.20
10233;DHT22;5161;48.174;11.756;2022-12-26T06:03:55;10.00;93.10
10233;DHT22;5161;48.174;11.756;2022-12-26T06:06:22;10.00;93.40
10233;DHT22;5161;48.174;11.756;2022-12-26T06:08:49;10.00;93.20
10233;DHT22;5161;48.174;11.756;2022-12-26T06:11:16;10.00;93.20
10233;DHT22;5161;48.174;11.756;2022-12-26T06:13:42;10.10;93.30
10233;DHT22;5161;48.174;11.756;2022-12-26T06:16:11;10.10;93.30
10233;DHT22;5161;48.174;11.756;2022-12-26T06:18:37;10.10;93.50
10233;DHT22;5161;48.174;11.756;2022-12-26T06:21:09;10.10;93.20
10233;DHT22;5161;48.174;11.756;2022-12-26T06:23:35;10.10;93.30
10233;DHT22;5161;48.174;11.756;2022-12-26T06:26:01;10.10;93.30
10233;DHT22;5161;48.174;11.756;2022-12-26T06:28:27;10.00;93.40
10233;DHT22;5161;48.174;11.756;2022-12-26T06:30:53;10.00;93.50
10233;DHT22;5161;48.174;11.756;2022-12-26T06:33:19;10.10;93.60
10233;DHT22;5161;48.174;11.756;2022-12-26T06:35:45;10.10;93.50
10233;DHT22;5161;48.174;11.756;2022-12-26T06:38:11;10.10;93.50
10233;DHT22;5161;48.174;11.756;2022-12-26T06:40:38;10.20;93.70
10233;DHT22;5161;48.174;11.756;2022-12-26T06:43:04;10.20;93.70
10233;DHT22;5161;48.174;11.756;2022-12-26T06:45:30;10.30;93.80
10233;DHT22;5161;48.174;11.756;2022-12-26T06:47:56;10.30;93.80
10233;DHT22;5161;48.174;11.756;2022-12-26T06:50:21;10.30;93.80
10233;DHT22;5161;48.174;11.756;2022-12-26T06:52:47;10.40;93.80
10233;DHT22;5161;48.174;11.756;2022-12-26T06:55:13;10.40;93.80
10233;DHT22;5161;48.174;11.756;2022-12-26T06:57:38;10.40;93.90
10233;DHT22;5161;48.174;11.756;2022-12-26T07:00:04;10.40;93.80
10233;DHT22;5161;48.174;11.756;2022-12-26T07:02:30;10.40;93.80
10233;DHT22;5161;48.174;11.756;2022-12-26T07:04:56;10.30;93.80
10233;DHT22;5161;48.174;11.756;2022-12-26T07:07:21;10.30;93.90
10233;DHT22;5161;48.174;11.756;2022-12-26T07:09:47;10.40;94.00
10233;DHT22;5161;48.174;11.756;2022-12-26T07:12:12;10.30;93.90
10233;DHT22;5161;48.174;11.756;2022-12-26T07:14:38;10.40;94.10
10233;DHT22;5161;48.174;11.756;2022-12-26T07:17:03;10.40;94.10
10233;DHT22;5161;48.174;11.756;2022-12-26T07:19:29;10.50;94.10
10233;DHT22;5161;48.174;11.756;2022-12-26T07:21:55;10.50;94.10
10233;DHT22;5161;48.174;11.756;2022-12-26T07:24:21;10.60;94.30
10233;DHT22;5161;48.174;11.756;2022-12-26T07:26:48;10.60;94.20
10233;DHT22;5161;48.174;11.756;2022-12-26T07:29:14;10.60;94.20
10233;DHT22;5161;48.174;11.756;2022-12-26T07:31:40;10.60;94.20
10233;DHT22;5161;48.174;11.756;2022-12-26T07:34:06;10.60;94.20
10233;DHT22;5161;48.174;11.756;2022-12-26T07:36:32;10.60;94.30
10233;DHT22;5161;48.174;11.756;2022-12-26T07:38:58;10.70;94.30
10233;DHT22;5161;48.174;11.756;2022-12-26T07:41:24;10.70;94.30
10233;DHT22;5161;48.174;11.756;2022-12-26T07:44:09;10.70;94.30
10233;DHT22;5161;48.174;11.756;2022-12-26T07:46:34;10.80;94.40
10233;DHT22;5161;48.174;11.756;2022-12-26T07:49:00;10.80;94.20
10233;DHT22;5161;48.174;11.756;2022-12-26T07:51:26;10.80;94.30
10233;DHT22;5161;48.174;11.756;2022-12-26T07:53:52;10.80;94.30
10233;DHT22;5161;48.174;11.756;2022-12-26T07:56:18;10.80;94.30
10233;DHT22;5161;48.174;11.756;2022-12-26T07:58:47;10.80;94.30
10233;DHT22;5161;48.174;11.756;2022-12-26T08:01:13;10.80;94.30
10233;DHT22;5161;48.174;11.756;2022-12-26T08:03:39;10.90;94.30
10233;DHT22;5161;48.174;11.756;2022-12-26T08:06:04;10.90;94.40
10233;DHT22;5161;48.174;11.756;2022-12-26T08:08:30;11.00;94.40
10233;DHT22;5161;48.174;11.756;2022-12-26T08:11:03;11.00;94.40
10233;DHT22;5161;48.174;11.756;2022-12-26T08:13:30;11.00;94.10
10233;DHT22;5161;48.174;11.756;2022-12-26T08:15:56;11.00;94.10
10233;DHT22;5161;48.174;11.756;2022-12-26T08:18:22;11.10;94.20
10233;DHT22;5161;48.174;11.756;2022-12-26T08:20:48;11.10;94.10
10233;DHT22;5161;48.174;11.756;2022-12-26T08:23:14;11.10;94.20
10233;DHT22;5161;48.174;11.756;2022-12-26T08:25:40;11.00;93.90
10233;DHT22;5161;48.174;11.756;2022-12-26T08:28:05;11.00;94.10
10233;DHT22;5161;48.174;11.756;2022-12-26T08:30:31;11.00;94.10
10233;DHT22;5161;48.174;11.756;2022-12-26T08:32:57;11.00;94.00
10233;DHT22;5161;48.174;11.756;2022-12-26T08:35:25;11.00;94.00
10233;DHT22;5161;48.174;11.756;2022-12-26T08:37:51;11.00;94.30
10233;DHT22;5161;48.174;11.756;2022-12-26T08:40:16;11.10;94.10
10233;DHT22;5161;48.174;11.756;2022-12-26T08:42:42;11.10;94.20
10233;DHT22;5161;48.174;11.756;2022-12-26T08:45:08;11.10;93.90
10233;DHT22;5161;48.174;11.756;2022-12-26T08:47:33;11.20;94.00
10233;DHT22;5161;48.174;11.756;2022-12-26T08:49:59;11.20;94.00
10233;DHT22;5161;48.174;11.756;2022-12-26T08:52:24;11.20;94.00
10233;DHT22;5161;48.174;11.756;2022-12-26T08:54:50;11.20;94.00
10233;DHT22;5161;48.174;11.756;2022-12-26T08:57:16;11.20;94.00
10233;DHT22;5161;48.174;11.756;2022-12-26T08:59:42;11.30;94.10
10233;DHT22;5161;48.174;11.756;2022-12-26T09:02:10;11.30;94.10
10233;DHT22;5161;48.174;11.756;2022-12-26T09:04:35;11.30;94.10
10233;DHT22;5161;48.174;11.756;2022-12-26T09:07:03;11.30;94.10
10233;DHT22;5161;48.174;11.756;2022-12-26T09:09:28;11.40;94.10
10233;DHT22;5161;48.174;11.756;2022-12-26T09:11:54;11.40;94.20
10233;DHT22;5161;48.174;11.756;2022-12-26T09:14:20;11.40;94.20
10233;DHT22;5161;48.174;11.756;2022-12-26T09:16:45;11.50;94.20
10233;DHT22;5161;48.174;11.756;2022-12-26T09:19:13;11.50;94.30
10233;DHT22;5161;48.174;11.756;2022-12-26T09:21:42;11.50;94.30
10233;DHT22;5161;48.174;11.756;2022-12-26T09:24:13;11.60;94.10
10233;DHT22;5161;48.174;11.756;2022-12-26T09:26:39;11.60;94.10
10233;DHT22;5161;48.174;11.756;2022-12-26T09:29:05;11.70;94.20
10233;DHT22;5161;48.174;11.756;2022-12-26T09:31:33;11.80;94.40
10233;DHT22;5161;48.174;11.756;2022-12-26T09:34:04;11.80;93.90
10233;DHT22;5161;48.174;11.756;2022-12-26T09:36:32;11.80;94.00
10233;DHT22;5161;48.174;11.756;2022-12-26T09:38:58;11.90;94.00
10233;DHT22;5161;48.174;11.756;2022-12-26T09:52:56;12.20;93.40
10233;DHT22;5161;48.174;11.756;2022-12-26T10:00:45;12.30;93.70
10233;DHT22;5161;48.174;11.756;2022-12-26T10:03:13;12.40;93.70
10233;DHT22;5161;48.174;11.756;2022-12-26T10:05:49;12.50;93.80
10233;DHT22;5161;48.174;11.756;2022-12-26T10:08:38;12.50;93.70
10233;DHT22;5161;48.174;11.756;2022-12-26T10:11:08;12.60;93.70
10233;DHT22;5161;48.174;11.756;2022-12-26T10:14:07;12.70;93.40
10233;DHT22;5161;48.174;11.756;2022-12-26T10:19:49;12.90;92.80
10233;DHT22;5161;48.174;11.756;2022-12-26T10:25:19;13.20;93.20
10233;DHT22;5161;48.174;11.756;2022-12-26T10:27:48;13.30;92.30
10233;DHT22;5161;48.174;11.756;2022-12-26T10:30:24;13.40;91.80
10233;DHT22;5161;48.174;11.756;2022-12-26T10:32:58;13.50;92.40
10233;DHT22;5161;48.174;11.756;2022-12-26T10:35:36;13.70;92.00
10233;DHT22;5161;48.174;11.756;2022-12-26T10:38:25;13.90;91.60
10233;DHT22;5161;48.174;11.756;2022-12-26T10:40:55;14.10;91.80
10233;DHT22;5161;48.174;11.756;2022-12-26T10:43:31;14.30;91.20
10233;DHT22;5161;48.174;11.756;2022-12-26T10:48:34;14.50;91.90
10233;DHT22;5161;48.174;11.756;2022-12-26T10:51:00;14.60;91.80
10233;DHT22;5161;48.174;11.756;2022-12-26T10:53:26;14.70;90.80
10233;DHT22;5161;48.174;11.756;2022-12-26T10:55:51;14.70;90.80
10233;DHT22;5161;48.174;11.756;2022-12-26T10:58:24;14.50;90.20
10233;DHT22;5161;48.174;11.756;2022-12-26T11:00:53;14.40;90.70
10233;DHT22;5161;48.174;11.756;2022-12-26T11:03:19;14.40;90.50
10233;DHT22;5161;48.174;11.756;2022-12-26T11:05:50;14.30;90.90
10233;DHT22;5161;48.174;11.756;2022-12-26T11:08:24;14.30;91.10
10233;DHT22;5161;48.174;11.756;2022-12-26T11:11:11;14.20;91.20
10233;DHT22;5161;48.174;11.756;2022-12-26T11:13:50;14.20;91.10
10233;DHT22;5161;48.174;11.756;2022-12-26T11:16:25;14.10;90.80
10233;DHT22;5161;48.174;11.756;2022-12-26T11:18:52;14.10;90.60
10233;DHT22;5161;48.174;11.756;2022-12-26T11:23:48;13.90;90.50
10233;DHT22;5161;48.174;11.756;2022-12-26T11:26:21;13.90;90.60
10233;DHT22;5161;48.174;11.756;2022-12-26T11:28:47;13.90;90.60
10233;DHT22;5161;48.174;11.756;2022-12-26T11:31:23;13.90;90.80
10233;DHT22;5161;48.174;11.756;2022-12-26T11:33:51;13.90;90.90
10233;DHT22;5161;48.174;11.756;2022-12-26T11:36:21;13.80;90.80
10233;DHT22;5161;48.174;11.756;2022-12-26T11:38:59;13.80;90.50
10233;DHT22;5161;48.174;11.756;2022-12-26T11:44:13;13.80;90.90
10233;DHT22;5161;48.174;11.756;2022-12-26T11:46:47;13.80;91.00
10233;DHT22;5161;48.174;11.756;2022-12-26T11:49:30;13.80;90.90
10233;DHT22;5161;48.174;11.756;2022-12-26T11:51:58;13.80;90.90
10233;DHT22;5161;48.174;11.756;2022-12-26T11:55:11;13.80;91.00
10233;DHT22;5161;48.174;11.756;2022-12-26T11:59:42;13.80;91.00
10233;DHT22;5161;48.174;11.756;2022-12-26T12:02:28;13.70;91.10
10233;DHT22;5161;48.174;11.756;2022-12-26T12:05:05;13.70;91.10
10233;DHT22;5161;48.174;11.756;2022-12-26T12:07:47;13.70;91.10
10233;DHT22;5161;48.174;11.756;2022-12-26T12:15:49;13.70;91.10
10233;DHT22;5161;48.174;11.756;2022-12-26T12:18:43;13.70;91.20
10233;DHT22;5161;48.174;11.756;2022-12-26T12:32:52;13.60;92.80
10233;DHT22;5161;48.174;11.756;2022-12-26T12:39:10;13.50;94.00
10233;DHT22;5161;48.174;11.756;2022-12-26T12:45:22;13.20;94.50
10233;DHT22;5161;48.174;11.756;2022-12-26T12:47:59;13.10;96.00
10233;DHT22;5161;48.174;11.756;2022-12-26T13:01:06;12.90;96.40
10233;DHT22;5161;48.174;11.756;2022-12-26T13:06:38;12.70;96.80
10233;DHT22;5161;48.174;11.756;2022-12-26T13:09:24;12.70;97.80
10233;DHT22;5161;48.174;11.756;2022-12-26T13:11:59;12.70;97.20
10233;DHT22;5161;48.174;11.756;2022-12-26T13:14:45;12.60;98.40
10233;DHT22;5161;48.174;11.756;2022-12-26T13:17:42;12.50;97.70
10233;DHT22;5161;48.174;11.756;2022-12-26T13:20:25;12.60;98.60
10233;DHT22;5161;48.174;11.756;2022-12-26T13:22:57;12.40;98.90
10233;DHT22;5161;48.174;11.756;2022-12-26T13:25:47;12.40;98.70
10233;DHT22;5161;48.174;11.756;2022-12-26T13:28:21;12.40;98.60
10233;DHT22;5161;48.174;11.756;2022-12-26T13:30:55;12.30;98.90
10233;DHT22;5161;48.174;11.756;2022-12-26T13:33:21;12.30;99.30
10233;DHT22;5161;48.174;11.756;2022-12-26T13:35:58;12.30;99.40
10233;DHT22;5161;48.174;11.756;2022-12-26T13:39:13;12.30;99.40
10233;DHT22;5161;48.174;11.756;2022-12-26T13:41:15;12.30;99.90
10233;DHT22;5161;48.174;11.756;2022-12-26T13:44:05;12.30;99.90
10233;DHT22;5161;48.174;11.756;2022-12-26T13:49:26;12.10;99.90
10233;DHT22;5161;48.174;11.756;2022-12-26T13:51:55;12.10;99.90
10233;DHT22;5161;48.174;11.756;2022-12-26T13:54:23;12.00;99.90
10233;DHT22;5161;48.174;11.756;2022-12-26T13:57:00;12.00;99.90
10233;DHT22;5161;48.174;11.756;2022-12-26T13:59:46;11.90;99.90
10233;DHT22;5161;48.174;11.756;2022-12-26T14:02:45;11.80;99.90
10233;DHT22;5161;48.174;11.756;2022-12-26T14:05:32;11.80;99.90
10233;DHT22;5161;48.174;11.756;2022-12-26T14:11:01;11.80;99.90
10233;DHT22;5161;48.174;11.756;2022-12-26T14:17:14;11.80;99.90
10233;DHT22;5161;48.174;11.756;2022-12-26T14:22:10;11.80;99.90
10233;DHT22;5161;48.174;11.756;2022-12-26T14:24:49;11.80;99.90
10233;DHT22;5161;48.174;11.756;2022-12-26T14:27:47;11.80;99.90
10233;DHT22;5161;48.174;11.756;2022-12-26T14:38:57;11.70;99.90
10233;DHT22;5161;48.174;11.756;2022-12-26T14:41:24;11.70;99.90
10233;DHT22;5161;48.174;11.756;2022-12-26T14:44:39;11.60;99.90
10233;DHT22;5161;48.174;11.756;2022-12-26T14:47:03;11.60;99.90
10233;DHT22;5161;48.174;11.756;2022-12-26T14:54:53;11.60;99.90
10233;DHT22;5161;48.174;11.756;2022-12-26T14:57:41;11.70;99.90
10233;DHT22;5161;48.174;11.756;2022-12-26T15:02:51;11.60;99.90
10233;DHT22;5161;48.174;11.756;2022-12-26T15:05:37;11.60;99.90
10233;DHT22;5161;48.174;11.756;2022-12-26T15:11:12;11.60;99.90
10233;DHT22;5161;48.174;11.756;2022-12-26T15:22:17;11.50;99.90
10233;DHT22;5161;48.174;11.756;2022-12-26T15:28:05;11.50;99.90
10233;DHT22;5161;48.174;11.756;2022-12-26T15:33:27;11.40;99.90
10233;DHT22;5161;48.174;11.756;2022-12-26T15:41:53;11.30;99.90
10233;DHT22;5161;48.174;11.756;2022-12-26T15:47:17;11.20;99.90
10233;DHT22;5161;48.174;11.756;2022-12-26T16:00:31;10.90;99.90
10233;DHT22;5161;48.174;11.756;2022-12-26T16:03:58;10.90;99.90
10233;DHT22;5161;48.174;11.756;2022-12-26T16:11:47;10.80;99.90
10233;DHT22;5161;48.174;11.756;2022-12-26T16:14:44;10.80;99.90
10233;DHT22;5161;48.174;11.756;2022-12-26T16:19:38;10.60;99.90
10233;DHT22;5161;48.174;11.756;2022-12-26T16:22:06;10.60;99.90
10233;DHT22;5161;48.174;11.756;2022-12-26T16:24:52;10.60;99.90
10233;DHT22;5161;48.174;11.756;2022-12-26T16:27:21;10.60;99.90
10233;DHT22;5161;48.174;11.756;2022-12-26T16:29:54;10.60;99.90
10233;DHT22;5161;48.174;11.756;2022-12-26T16:32:28;10.60;99.90
10233;DHT22;5161;48.174;11.756;2022-12-26T16:34:57;10.50;99.90
10233;DHT22;5161;48.174;11.756;2022-12-26T16:37:24;10.50;99.90
10233;DHT22;5161;48.174;11.756;2022-12-26T16:40:16;10.40;99.90
10233;DHT22;5161;48.174;11.756;2022-12-26T16:42:53;10.40;99.90
10233;DHT22;5161;48.174;11.756;2022-12-26T16:45:20;10.30;99.90
10233;DHT22;5161;48.174;11.756;2022-12-26T16:47:46;10.20;99.90
10233;DHT22;5161;48.174;11.756;2022-12-26T16:50:18;10.20;99.90
10233;DHT22;5161;48.174;11.756;2022-12-26T16:52:44;10.20;99.90
10233;DHT22;5161;48.174;11.756;2022-12-26T16:55:28;10.20;99.90
10233;DHT22;5161;48.174;11.756;2022-12-26T16:58:00;10.30;99.90
10233;DHT22;5161;48.174;11.756;2022-12-26T17:00:26;10.20;99.90
10233;DHT22;5161;48.174;11.756;2022-12-26T17:02:56;10.30;99.90
10233;DHT22;5161;48.174;11.756;2022-12-26T17:05:26;10.30;99.90
10233;DHT22;5161;48.174;11.756;2022-12-26T17:07:55;10.40;99.90
10233;DHT22;5161;48.174;11.756;2022-12-26T17:10:26;10.30;99.90
10233;DHT22;5161;48.174;11.756;2022-12-26T17:12:53;10.40;99.90
10233;DHT22;5161;48.174;11.756;2022-12-26T17:15:27;10.40;99.90
10233;DHT22;5161;48.174;11.756;2022-12-26T17:17:53;10.50;99.90
10233;DHT22;5161;48.174;11.756;2022-12-26T17:22:51;10.50;99.90
10233;DHT22;5161;48.174;11.756;2022-12-26T17:30:40;10.40;99.90
10233;DHT22;5161;48.174;11.756;2022-12-26T17:33:24;10.30;99.90
10233;DHT22;5161;48.174;11.756;2022-12-26T17:36:06;10.40;99.90
10233;DHT22;5161;48.174;11.756;2022-12-26T17:38:36;10.40;99.90
10233;DHT22;5161;48.174;11.756;2022-12-26T17:41:04;10.40;99.90
10233;DHT22;5161;48.174;11.756;2022-12-26T17:43:33;10.30;99.90
10233;DHT22;5161;48.174;11.756;2022-12-26T17:46:00;10.30;99.90
10233;DHT22;5161;48.174;11.756;2022-12-26T17:48:26;10.30;99.90
10233;DHT22;5161;48.174;11.756;2022-12-26T17:51:01;10.40;99.90
10233;DHT22;5161;48.174;11.756;2022-12-26T17:53:33;10.40;99.90
10233;DHT22;5161;48.174;11.756;2022-12-26T17:56:02;10.30;99.90
10233;DHT22;5161;48.174;11.756;2022-12-26T17:58:29;10.20;99.90
10233;DHT22;5161;48.174;11.756;2022-12-26T18:00:54;10.30;99.90
10233;DHT22;5161;48.174;11.756;2022-12-26T18:03:20;10.20;99.90
10233;DHT22;5161;48.174;11.756;2022-12-26T18:05:47;10.20;99.90
10233;DHT22;5161;48.174;11.756;2022-12-26T18:08:33;10.30;99.90
10233;DHT22;5161;48.174;11.756;2022-12-26T18:11:01;10.30;99.90
10233;DHT22;5161;48.174;11.756;2022-12-26T18:13:27;10.30;99.90
10233;DHT22;5161;48.174;11.756;2022-12-26T18:15:55;10.30;99.90
10233;DHT22;5161;48.174;11.756;2022-12-26T18:18:33;10.30;99.90
10233;DHT22;5161;48.174;11.756;2022-12-26T18:21:01;10.10;99.90
10233;DHT22;5161;48.174;11.756;2022-12-26T18:23:27;10.00;99.90
10233;DHT22;5161;48.174;11.756;2022-12-26T18:25:55;10.00;99.90
10233;DHT22;5161;48.174;11.756;2022-12-26T18:28:22;10.00;99.90
10233;DHT22;5161;48.174;11.756;2022-12-26T18:30:48;10.10;99.90
10233;DHT22;5161;48.174;11.756;2022-12-26T18:33:13;10.00;99.90
10233;DHT22;5161;48.174;11.756;2022-12-26T18:35:41;10.00;99.90
10233;DHT22;5161;48.174;11.756;2022-12-26T18:38:07;10.00;99.90
10233;DHT22;5161;48.174;11.756;2022-12-26T18:40:41;10.00;99.90
10233;DHT22;5161;48.174;11.756;2022-12-26T18:43:07;10.00;99.90
10233;DHT22;5161;48.174;11.756;2022-12-26T18:45:34;10.00;99.90
10233;DHT22;5161;48.174;11.756;2022-12-26T18:48:00;10.00;99.90
10233;DHT22;5161;48.174;11.756;2022-12-26T18:50:28;10.00;99.90
10233;DHT22;5161;48.174;11.756;2022-12-26T18:52:54;10.00;99.90
10233;DHT22;5161;48.174;11.756;2022-12-26T18:55:22;10.00;99.90
10233;DHT22;5161;48.174;11.756;2022-12-26T18:57:47;10.00;99.90
10233;DHT22;5161;48.174;11.756;2022-12-26T19:00:14;10.00;99.90
10233;DHT22;5161;48.174;11.756;2022-12-26T19:02:41;10.00;99.90
10233;DHT22;5161;48.174;11.756;2022-12-26T19:05:20;10.00;99.90
10233;DHT22;5161;48.174;11.756;2022-12-26T19:07:46;10.00;99.90
10233;DHT22;5161;48.174;11.756;2022-12-26T19:10:14;10.00;99.90
10233;DHT22;5161;48.174;11.756;2022-12-26T19:12:41;10.00;99.90
10233;DHT22;5161;48.174;11.756;2022-12-26T19:15:07;9.90;99.90